createdAt,value
2023-05-15T00:00:24.177Z,0.00
2023-05-15T00:01:24.168Z,0.00
2023-05-15T00:02:24.270Z,0.00
2023-05-15T00:03:24.198Z,0.00
2023-05-15T00:04:24.188Z,0.00
2023-05-15T00:05:24.310Z,0.00
2023-05-15T00:06:24.106Z,0.00
2023-05-15T00:07:24.115Z,0.00
2023-05-15T00:08:24.107Z,0.00
2023-05-15T00:09:24.101Z,0.00
2023-05-15T00:10:24.068Z,0.00
2023-05-15T00:11:24.068Z,0.00
2023-05-15T00:12:24.044Z,0.00
2023-05-15T00:13:24.037Z,0.00
2023-05-15T00:14:24.026Z,0.00
2023-05-15T00:15:24.287Z,0.00
2023-05-15T00:16:24.046Z,0.00
2023-05-15T00:17:23.996Z,0.00
2023-05-15T00:18:23.981Z,0.00
2023-05-15T00:19:23.971Z,0.00
2023-05-15T00:20:24.008Z,0.00
2023-05-15T00:21:23.992Z,0.00
2023-05-15T00:22:23.959Z,0.00
2023-05-15T00:23:23.950Z,0.00
2023-05-15T00:24:23.932Z,0.00
2023-05-15T00:25:24.066Z,0.00
2023-05-15T00:26:23.951Z,0.00
2023-05-15T00:27:23.958Z,0.00
2023-05-15T00:28:23.895Z,0.00
2023-05-15T00:29:23.880Z,0.00
2023-05-15T00:30:23.895Z,0.00
2023-05-15T00:31:23.901Z,0.00
2023-05-15T00:32:23.869Z,0.00
2023-05-15T00:33:23.847Z,0.00
2023-05-15T00:34:24.846Z,0.00
2023-05-15T00:35:23.982Z,0.00
2023-05-15T00:36:23.816Z,0.00
2023-05-15T00:37:23.866Z,0.00
2023-05-15T00:38:23.800Z,0.00
2023-05-15T00:39:23.798Z,0.00
2023-05-15T00:40:23.802Z,0.00
2023-05-15T00:41:23.767Z,0.00
2023-05-15T00:42:23.754Z,0.00
2023-05-15T00:43:23.753Z,0.00
2023-05-15T00:44:23.730Z,0.00
2023-05-15T00:45:23.894Z,0.00
2023-05-15T00:46:23.740Z,0.00
2023-05-15T00:47:23.723Z,0.00
2023-05-15T00:48:23.698Z,0.00
2023-05-15T00:49:23.715Z,0.00
2023-05-15T00:50:23.686Z,0.00
2023-05-15T00:51:23.666Z,0.00
2023-05-15T00:52:23.695Z,0.00
2023-05-15T00:53:23.660Z,0.00
2023-05-15T00:54:23.657Z,0.00
2023-05-15T00:55:23.681Z,0.00
2023-05-15T00:56:23.625Z,0.00
2023-05-15T00:57:23.611Z,0.00
2023-05-15T00:58:23.595Z,0.00
2023-05-15T00:59:23.599Z,0.00
2023-05-15T01:00:23.593Z,0.00
2023-05-15T01:01:23.585Z,0.00
2023-05-15T01:02:23.602Z,0.00
2023-05-15T01:03:23.605Z,0.00
2023-05-15T01:04:23.570Z,0.00
2023-05-15T01:05:23.722Z,0.00
2023-05-15T01:06:23.515Z,0.00
2023-05-15T01:07:23.522Z,0.00
2023-05-15T01:08:23.511Z,0.00
2023-05-15T01:09:24.478Z,0.00
2023-05-15T01:10:23.477Z,0.00
2023-05-15T01:11:23.466Z,0.00
2023-05-15T01:12:23.476Z,0.00
2023-05-15T01:13:23.457Z,0.00
2023-05-15T01:14:23.449Z,0.00
2023-05-15T01:15:23.509Z,0.00
2023-05-15T01:16:23.417Z,0.00
2023-05-15T01:17:23.431Z,0.00
2023-05-15T01:18:23.567Z,0.00
2023-05-15T01:19:23.508Z,0.00
2023-05-15T01:20:23.369Z,0.00
2023-05-15T01:21:23.388Z,0.00
2023-05-15T01:22:23.375Z,0.00
2023-05-15T01:23:23.351Z,0.00
2023-05-15T01:24:23.341Z,0.00
2023-05-15T01:25:23.516Z,0.00
2023-05-15T01:26:23.360Z,0.00
2023-05-15T01:27:23.307Z,0.00
2023-05-15T01:28:23.292Z,0.00
2023-05-15T01:29:23.274Z,0.00
2023-05-15T01:30:23.269Z,0.00
2023-05-15T01:31:23.290Z,0.00
2023-05-15T01:32:23.300Z,0.00
2023-05-15T01:33:23.252Z,0.00
2023-05-15T01:34:23.245Z,0.00
2023-05-15T01:35:23.691Z,0.00
2023-05-15T01:36:23.236Z,0.00
2023-05-15T01:37:23.204Z,0.00
2023-05-15T01:38:23.194Z,0.00
2023-05-15T01:39:23.231Z,0.00
2023-05-15T01:40:24.170Z,0.00
2023-05-15T01:41:23.175Z,0.00
2023-05-15T01:42:23.156Z,0.00
2023-05-15T01:43:23.133Z,0.00
2023-05-15T01:44:23.134Z,0.00
2023-05-15T01:45:23.280Z,0.00
2023-05-15T01:46:23.180Z,0.00
2023-05-15T01:47:23.168Z,0.00
2023-05-15T01:48:23.085Z,0.00
2023-05-15T01:49:23.110Z,0.00
2023-05-15T01:50:23.098Z,0.00
2023-05-15T01:51:23.060Z,0.00
2023-05-15T01:52:23.074Z,0.00
2023-05-15T01:53:23.040Z,0.00
2023-05-15T01:54:23.064Z,0.00
2023-05-15T01:56:23.010Z,0.00
2023-05-15T01:57:23.002Z,0.00
2023-05-15T01:58:22.989Z,0.00
2023-05-15T01:59:23.006Z,0.00
2023-05-15T02:00:22.982Z,0.00
2023-05-15T02:01:22.977Z,0.00
2023-05-15T02:02:23.035Z,0.00
2023-05-15T02:03:23.014Z,0.00
2023-05-15T02:04:23.078Z,0.00
2023-05-15T02:05:23.051Z,0.00
2023-05-15T02:06:22.903Z,0.00
2023-05-15T02:07:22.891Z,0.00
2023-05-15T02:08:22.877Z,0.00
2023-05-15T02:09:22.889Z,0.00
2023-05-15T02:10:22.866Z,0.00
2023-05-15T02:11:22.857Z,0.00
2023-05-15T02:12:22.882Z,0.00
2023-05-15T02:13:22.850Z,0.00
2023-05-15T02:14:22.844Z,0.00
2023-05-15T02:15:23.149Z,0.00
2023-05-15T02:16:22.879Z,0.00
2023-05-15T02:17:22.807Z,0.00
2023-05-15T02:18:22.792Z,0.00
2023-05-15T02:19:22.767Z,0.00
2023-05-15T02:20:22.770Z,0.00
2023-05-15T02:21:22.754Z,0.00
2023-05-15T02:22:22.729Z,0.00
2023-05-15T02:23:22.745Z,0.00
2023-05-15T02:24:22.711Z,0.00
2023-05-15T02:25:22.842Z,0.00
2023-05-15T02:26:22.708Z,0.00
2023-05-15T02:27:22.736Z,0.00
2023-05-15T02:28:22.718Z,0.00
2023-05-15T02:29:22.659Z,0.00
2023-05-15T02:30:22.652Z,0.00
2023-05-15T02:31:24.394Z,0.00
2023-05-15T02:32:22.727Z,0.00
2023-05-15T02:33:22.613Z,0.00
2023-05-15T02:34:22.598Z,0.00
2023-05-15T02:35:22.670Z,0.00
2023-05-15T02:36:22.588Z,0.00
2023-05-15T02:37:22.596Z,0.00
2023-05-15T02:38:22.560Z,0.00
2023-05-15T02:39:22.552Z,0.00
2023-05-15T02:40:22.533Z,0.00
2023-05-15T02:41:22.595Z,0.00
2023-05-15T02:42:22.551Z,0.00
2023-05-15T02:43:22.515Z,0.00
2023-05-15T02:44:22.503Z,0.00
2023-05-15T02:45:22.495Z,0.00
2023-05-15T02:46:22.534Z,0.00
2023-05-15T02:47:22.503Z,0.00
2023-05-15T02:48:22.453Z,0.00
2023-05-15T02:49:22.455Z,0.00
2023-05-15T02:50:22.432Z,0.00
2023-05-15T02:51:22.455Z,0.00
2023-05-15T02:52:22.411Z,0.00
2023-05-15T02:53:22.405Z,0.00
2023-05-15T02:54:22.405Z,4.00
2023-05-15T02:55:22.482Z,4.00
2023-05-15T02:56:22.431Z,4.00
2023-05-15T02:57:22.358Z,4.00
2023-05-15T02:58:22.354Z,0.00
2023-05-15T02:59:22.345Z,4.00
2023-05-15T03:00:22.433Z,4.00
2023-05-15T03:01:22.372Z,8.00
2023-05-15T03:02:22.341Z,4.00
2023-05-15T03:03:22.299Z,8.00
2023-05-15T03:04:22.353Z,8.00
2023-05-15T03:05:22.342Z,8.00
2023-05-15T03:06:22.270Z,8.00
2023-05-15T03:07:22.253Z,12.00
2023-05-15T03:08:22.265Z,12.00
2023-05-15T03:09:22.261Z,12.00
2023-05-15T03:10:22.250Z,16.00
2023-05-15T03:11:22.238Z,20.00
2023-05-15T03:12:22.205Z,20.00
2023-05-15T03:13:22.190Z,24.00
2023-05-15T03:14:22.205Z,24.00
2023-05-15T03:15:22.163Z,28.00
2023-05-15T03:16:22.209Z,32.00
2023-05-15T03:17:22.158Z,32.00
2023-05-15T03:18:22.138Z,40.00
2023-05-15T03:19:22.166Z,44.00
2023-05-15T03:20:22.112Z,48.00
2023-05-15T03:21:23.111Z,56.00
2023-05-15T03:22:22.097Z,64.00
2023-05-15T03:23:22.105Z,72.00
2023-05-15T03:24:22.094Z,80.00
2023-05-15T03:25:22.105Z,88.00
2023-05-15T03:26:22.073Z,96.00
2023-05-15T03:27:22.048Z,108.00
2023-05-15T03:28:22.046Z,116.00
2023-05-15T03:29:22.030Z,132.00
2023-05-15T03:30:22.010Z,144.00
2023-05-15T03:31:22.010Z,156.00
2023-05-15T03:32:22.012Z,168.00
2023-05-15T03:33:23.013Z,184.00
2023-05-15T03:34:21.974Z,200.00
2023-05-15T03:35:22.053Z,216.00
2023-05-15T03:36:21.949Z,236.00
2023-05-15T03:37:21.964Z,252.00
2023-05-15T03:38:22.001Z,268.00
2023-05-15T03:39:21.926Z,288.00
2023-05-15T03:40:21.910Z,308.00
2023-05-15T03:41:21.903Z,328.00
2023-05-15T03:42:21.905Z,352.00
2023-05-15T03:43:21.886Z,376.00
2023-05-15T03:44:21.882Z,400.00
2023-05-15T03:45:21.865Z,432.00
2023-05-15T03:46:21.884Z,456.00
2023-05-15T03:47:21.885Z,488.00
2023-05-15T03:48:21.826Z,512.00
2023-05-15T03:49:21.828Z,540.00
2023-05-15T03:50:21.801Z,568.00
2023-05-15T03:51:21.812Z,596.00
2023-05-15T03:52:21.797Z,624.00
2023-05-15T03:53:21.769Z,652.00
2023-05-15T03:54:21.756Z,680.00
2023-05-15T03:55:21.773Z,708.00
2023-05-15T03:56:21.780Z,736.00
2023-05-15T03:57:21.737Z,764.00
2023-05-15T03:58:21.720Z,796.00
2023-05-15T03:59:21.720Z,832.00
2023-05-15T04:00:21.713Z,864.00
2023-05-15T04:01:21.723Z,908.00
2023-05-15T04:02:21.771Z,944.00
2023-05-15T04:03:21.828Z,992.00
2023-05-15T04:04:21.659Z,1040.00
2023-05-15T04:05:21.822Z,1100.00
2023-05-15T04:06:21.674Z,1160.00
2023-05-15T04:07:21.631Z,1224.00
2023-05-15T04:08:21.630Z,1288.00
2023-05-15T04:09:21.628Z,1352.00
2023-05-15T04:10:21.631Z,1420.00
2023-05-15T04:11:21.605Z,1488.00
2023-05-15T04:12:21.622Z,1568.00
2023-05-15T04:13:21.560Z,1644.00
2023-05-15T04:14:21.555Z,1728.00
2023-05-15T04:15:21.705Z,1808.00
2023-05-15T04:16:21.598Z,1896.00
2023-05-15T04:17:21.574Z,1988.00
2023-05-15T04:18:21.530Z,2092.00
2023-05-15T04:19:21.562Z,2200.00
2023-05-15T04:20:22.493Z,2292.00
2023-05-15T04:21:21.512Z,2384.00
2023-05-15T04:22:21.476Z,2476.00
2023-05-15T04:23:21.467Z,2564.00
2023-05-15T04:24:21.480Z,2652.00
2023-05-15T04:25:21.445Z,2744.00
2023-05-15T04:26:21.443Z,2840.00
2023-05-15T04:27:21.425Z,2936.00
2023-05-15T04:28:21.440Z,3040.00
2023-05-15T04:29:21.489Z,3156.00
2023-05-15T04:30:21.397Z,3276.00
2023-05-15T04:31:21.424Z,3412.00
2023-05-15T04:32:21.373Z,3560.00
2023-05-15T04:33:21.418Z,3712.00
2023-05-15T04:34:21.387Z,3840.00
2023-05-15T04:35:21.348Z,3980.00
2023-05-15T04:36:21.328Z,4148.00
2023-05-15T04:37:21.322Z,4320.00
2023-05-15T04:38:47.260Z,4444.00
2023-05-15T04:39:21.304Z,4592.00
2023-05-15T04:40:21.298Z,4768.00
2023-05-15T04:41:21.294Z,4944.00
2023-05-15T04:42:21.276Z,5096.00
2023-05-15T04:43:21.288Z,5232.00
2023-05-15T04:44:21.282Z,5340.00
2023-05-15T04:45:21.289Z,5436.00
2023-05-15T04:46:21.264Z,5492.00
2023-05-15T04:47:22.276Z,5540.00
2023-05-15T04:48:21.243Z,5592.00
2023-05-15T04:49:21.215Z,5636.00
2023-05-15T04:50:21.218Z,5648.00
2023-05-15T04:51:21.208Z,5648.00
2023-05-15T04:52:21.232Z,5688.00
2023-05-15T04:53:21.177Z,5768.00
2023-05-15T04:54:21.156Z,5828.00
2023-05-15T04:55:21.147Z,5860.00
2023-05-15T04:56:21.143Z,5876.00
2023-05-15T04:57:21.146Z,5876.00
2023-05-15T04:58:21.126Z,5860.00
2023-05-15T04:59:21.112Z,5860.00
2023-05-15T05:00:21.132Z,5856.00
2023-05-15T05:01:21.178Z,5856.00
2023-05-15T05:02:21.128Z,5868.00
2023-05-15T05:03:21.098Z,5868.00
2023-05-15T05:04:21.117Z,5860.00
2023-05-15T05:05:21.049Z,5852.00
2023-05-15T05:06:21.061Z,5652.00
2023-05-15T05:07:21.029Z,5908.00
2023-05-15T05:08:21.027Z,6020.00
2023-05-15T05:09:21.014Z,6068.00
2023-05-15T05:10:20.999Z,6112.00
2023-05-15T05:11:21.015Z,6140.00
2023-05-15T05:12:20.971Z,6160.00
2023-05-15T05:13:20.988Z,6176.00
2023-05-15T05:14:20.968Z,6188.00
2023-05-15T05:15:20.968Z,6212.00
2023-05-15T05:16:21.028Z,6252.00
2023-05-15T05:17:20.919Z,6292.00
2023-05-15T05:18:20.926Z,6332.00
2023-05-15T05:19:20.917Z,6372.00
2023-05-15T05:20:20.918Z,6396.00
2023-05-15T05:21:20.907Z,6408.00
2023-05-15T05:22:20.887Z,6416.00
2023-05-15T05:23:20.892Z,6404.00
2023-05-15T05:24:20.875Z,6392.00
2023-05-15T05:25:20.869Z,6380.00
2023-05-15T05:26:20.856Z,6368.00
2023-05-15T05:27:20.838Z,6356.00
2023-05-15T05:28:20.828Z,6352.00
2023-05-15T05:29:20.829Z,6352.00
2023-05-15T05:30:20.835Z,6332.00
2023-05-15T05:31:20.838Z,6284.00
2023-05-15T05:32:20.843Z,6292.00
2023-05-15T05:33:20.797Z,5880.00
2023-05-15T05:34:20.785Z,5968.00
2023-05-15T05:35:20.753Z,6152.00
2023-05-15T05:36:21.743Z,6348.00
2023-05-15T05:37:20.748Z,6164.00
2023-05-15T05:38:20.723Z,6280.00
2023-05-15T05:39:20.733Z,6536.00
2023-05-15T05:40:20.724Z,6540.00
2023-05-15T05:41:20.715Z,6676.00
2023-05-15T05:42:20.689Z,6924.00
2023-05-15T05:43:20.702Z,7196.00
2023-05-15T05:44:20.699Z,7348.00
2023-05-15T05:45:20.686Z,7452.00
2023-05-15T05:46:20.670Z,7536.00
2023-05-15T05:47:20.712Z,7592.00
2023-05-15T05:48:20.635Z,7672.00
2023-05-15T05:49:20.613Z,7684.00
2023-05-15T05:50:20.604Z,7748.00
2023-05-15T05:51:20.589Z,7892.00
2023-05-15T05:52:20.594Z,8036.00
2023-05-15T05:53:20.607Z,8348.00
2023-05-15T05:54:20.567Z,9032.00
2023-05-15T05:55:20.563Z,8768.00
2023-05-15T05:56:20.542Z,8584.00
2023-05-15T05:57:20.577Z,8668.00
2023-05-15T05:58:25.497Z,8812.00
2023-05-15T05:59:22.524Z,9108.00
2023-05-15T06:00:20.502Z,10180.00
2023-05-15T06:01:20.526Z,10328.00
2023-05-15T06:02:20.554Z,10388.00
2023-05-15T06:03:20.630Z,10388.00
2023-05-15T06:04:20.533Z,10220.00
2023-05-15T06:05:20.473Z,10184.00
2023-05-15T06:06:20.478Z,10280.00
2023-05-15T06:07:20.474Z,10424.00
2023-05-15T06:08:20.445Z,9724.00
2023-05-15T06:09:20.431Z,9556.00
2023-05-15T06:10:20.412Z,9636.00
2023-05-15T06:11:20.447Z,9732.00
2023-05-15T06:12:22.851Z,9892.00
2023-05-15T06:13:21.386Z,9808.00
2023-05-15T06:14:21.275Z,9748.00
2023-05-15T06:15:20.380Z,9772.00
2023-05-15T06:16:20.492Z,9780.00
2023-05-15T06:17:20.346Z,9804.00
2023-05-15T06:18:20.342Z,9864.00
2023-05-15T06:19:20.391Z,9904.00
2023-05-15T06:20:20.330Z,9920.00
2023-05-15T06:21:20.318Z,9956.00
2023-05-15T06:22:20.296Z,9956.00
2023-05-15T06:23:20.412Z,9844.00
2023-05-15T06:24:20.935Z,9764.00
2023-05-15T06:25:20.281Z,9728.00
2023-05-15T06:26:20.274Z,9712.00
2023-05-15T06:27:20.252Z,9732.00
2023-05-15T06:28:20.240Z,9740.00
2023-05-15T06:29:20.244Z,9768.00
2023-05-15T06:30:20.240Z,9828.00
2023-05-15T06:31:20.281Z,9924.00
2023-05-15T06:32:20.224Z,10044.00
2023-05-15T06:33:20.192Z,10136.00
2023-05-15T06:34:20.185Z,10256.00
2023-05-15T06:35:20.206Z,10412.00
2023-05-15T06:36:20.154Z,10600.00
2023-05-15T06:37:20.166Z,10816.00
2023-05-15T06:38:20.145Z,11440.00
2023-05-15T06:39:20.162Z,10964.00
2023-05-15T06:40:20.863Z,10956.00
2023-05-15T06:41:20.196Z,11068.00
2023-05-15T06:42:20.110Z,11792.00
2023-05-15T06:43:20.091Z,12236.00
2023-05-15T06:44:21.893Z,12372.00
2023-05-15T06:45:20.103Z,12516.00
2023-05-15T06:46:20.074Z,12592.00
2023-05-15T06:47:20.056Z,12568.00
2023-05-15T06:48:20.101Z,12512.00
2023-05-15T06:49:20.053Z,12476.00
2023-05-15T06:50:20.023Z,12456.00
2023-05-15T06:51:20.021Z,12416.00
2023-05-15T06:52:20.073Z,12376.00
2023-05-15T06:53:20.161Z,12300.00
2023-05-15T06:54:20.019Z,12192.00
2023-05-15T06:55:20.005Z,12104.00
2023-05-15T06:56:19.988Z,11992.00
2023-05-15T06:57:19.980Z,11852.00
2023-05-15T06:58:19.955Z,11260.00
2023-05-15T06:59:19.949Z,10864.00
2023-05-15T07:00:19.946Z,10544.00
2023-05-15T07:01:19.965Z,10312.00
2023-05-15T07:02:19.920Z,10204.00
2023-05-15T07:03:19.895Z,10016.00
2023-05-15T07:04:19.958Z,9848.00
2023-05-15T07:05:19.890Z,9760.00
2023-05-15T07:06:19.873Z,9684.00
2023-05-15T07:07:19.901Z,9656.00
2023-05-15T07:08:19.874Z,9640.00
2023-05-15T07:09:19.936Z,9460.00
2023-05-15T07:10:19.844Z,9376.00
2023-05-15T07:11:19.820Z,9340.00
2023-05-15T07:12:19.849Z,9296.00
2023-05-15T07:13:19.811Z,9292.00
2023-05-15T07:14:19.793Z,9356.00
2023-05-15T07:15:19.796Z,9472.00
2023-05-15T07:16:19.772Z,9648.00
2023-05-15T07:17:19.805Z,9932.00
2023-05-15T07:18:19.756Z,10208.00
2023-05-15T07:19:19.814Z,10560.00
2023-05-15T07:20:19.734Z,10940.00
2023-05-15T07:21:19.737Z,11372.00
2023-05-15T07:22:19.735Z,11548.00
2023-05-15T07:23:19.705Z,11684.00
2023-05-15T07:24:19.692Z,11836.00
2023-05-15T07:25:19.952Z,11964.00
2023-05-15T07:26:27.932Z,12048.00
2023-05-15T07:27:21.667Z,12016.00
2023-05-15T07:28:19.669Z,11940.00
2023-05-15T07:29:19.631Z,11808.00
2023-05-15T07:30:19.620Z,11652.00
2023-05-15T07:31:19.703Z,11512.00
2023-05-15T07:32:19.644Z,11400.00
2023-05-15T07:33:19.599Z,11352.00
2023-05-15T07:34:19.586Z,11324.00
2023-05-15T07:35:19.609Z,11324.00
2023-05-15T07:36:19.603Z,11356.00
2023-05-15T07:37:19.573Z,11412.00
2023-05-15T07:38:19.604Z,11484.00
2023-05-15T07:39:19.618Z,11544.00
2023-05-15T07:40:19.600Z,11600.00
2023-05-15T07:41:19.541Z,11688.00
2023-05-15T07:42:19.505Z,11744.00
2023-05-15T07:43:19.529Z,11848.00
2023-05-15T07:44:19.492Z,11692.00
2023-05-15T07:45:19.596Z,11608.00
2023-05-15T07:46:19.511Z,11516.00
2023-05-15T07:47:19.470Z,11404.00
2023-05-15T07:48:19.489Z,11352.00
2023-05-15T07:49:19.443Z,11312.00
2023-05-15T07:50:19.459Z,11392.00
2023-05-15T07:51:19.416Z,11596.00
2023-05-15T07:52:19.430Z,11764.00
2023-05-15T07:53:19.405Z,11796.00
2023-05-15T07:54:19.420Z,12424.00
2023-05-15T07:55:19.382Z,11948.00
2023-05-15T07:56:19.376Z,11864.00
2023-05-15T07:57:19.370Z,11712.00
2023-05-15T07:58:19.356Z,11484.00
2023-05-15T07:59:19.374Z,11260.00
2023-05-15T08:00:19.343Z,11028.00
2023-05-15T08:01:19.319Z,11076.00
2023-05-15T08:02:19.473Z,10892.00
2023-05-15T08:03:19.569Z,10944.00
2023-05-15T08:04:19.422Z,11196.00
2023-05-15T08:05:19.282Z,11244.00
2023-05-15T08:06:19.279Z,11612.00
2023-05-15T08:07:19.269Z,11492.00
2023-05-15T08:08:19.278Z,11588.00
2023-05-15T08:09:19.239Z,11696.00
2023-05-15T08:10:20.251Z,11612.00
2023-05-15T08:11:19.230Z,11760.00
2023-05-15T08:12:19.214Z,11828.00
2023-05-15T08:13:19.259Z,11968.00
2023-05-15T08:14:19.217Z,12420.00
2023-05-15T08:15:19.190Z,12824.00
2023-05-15T08:16:19.241Z,12384.00
2023-05-15T08:17:19.176Z,12244.00
2023-05-15T08:18:19.153Z,11852.00
2023-05-15T08:19:19.194Z,11852.00
2023-05-15T08:20:19.135Z,11864.00
2023-05-15T08:21:19.187Z,11896.00
2023-05-15T08:22:19.139Z,11872.00
2023-05-15T08:23:19.155Z,11848.00
2023-05-15T08:24:19.114Z,11868.00
2023-05-15T08:25:19.098Z,11708.00
2023-05-15T08:26:19.093Z,11568.00
2023-05-15T08:27:19.105Z,11352.00
2023-05-15T08:28:19.059Z,11180.00
2023-05-15T08:29:19.040Z,11064.00
2023-05-15T08:30:19.064Z,10912.00
2023-05-15T08:31:19.111Z,10644.00
2023-05-15T08:32:19.037Z,10532.00
2023-05-15T08:33:19.014Z,10392.00
2023-05-15T08:34:18.999Z,10236.00
2023-05-15T08:35:18.994Z,10032.00
2023-05-15T08:36:19.055Z,9684.00
2023-05-15T08:37:18.974Z,9452.00
2023-05-15T08:38:18.960Z,9344.00
2023-05-15T08:39:18.943Z,9168.00
2023-05-15T08:40:25.608Z,9268.00
2023-05-15T08:41:28.859Z,9140.00
2023-05-15T08:42:20.936Z,8912.00
2023-05-15T08:43:18.904Z,8744.00
2023-05-15T08:44:18.903Z,8652.00
2023-05-15T08:45:18.898Z,8576.00
2023-05-15T08:46:18.942Z,8404.00
2023-05-15T08:47:18.873Z,8276.00
2023-05-15T08:48:18.892Z,8268.00
2023-05-15T08:49:18.846Z,8408.00
2023-05-15T08:50:18.883Z,8724.00
2023-05-15T08:51:18.858Z,9120.00
2023-05-15T08:52:18.814Z,9712.00
2023-05-15T08:53:19.842Z,9864.00
2023-05-15T08:54:18.809Z,10292.00
2023-05-15T08:55:18.816Z,11020.00
2023-05-15T08:56:18.787Z,11636.00
2023-05-15T08:57:18.757Z,12944.00
2023-05-15T08:58:18.757Z,12840.00
2023-05-15T08:59:18.770Z,12740.00
2023-05-15T09:00:18.782Z,12708.00
2023-05-15T09:01:19.765Z,12652.00
2023-05-15T09:02:18.725Z,12620.00
2023-05-15T09:03:18.860Z,12580.00
2023-05-15T09:04:18.735Z,12508.00
2023-05-15T09:05:18.700Z,12456.00
2023-05-15T09:06:18.680Z,12500.00
2023-05-15T09:07:18.669Z,12564.00
2023-05-15T09:08:18.669Z,12604.00
2023-05-15T09:09:18.681Z,12664.00
2023-05-15T09:10:18.716Z,12704.00
2023-05-15T09:11:18.635Z,12784.00
2023-05-15T09:12:18.619Z,12908.00
2023-05-15T09:13:18.670Z,13072.00
2023-05-15T09:14:19.112Z,13012.00
2023-05-15T09:15:18.602Z,12836.00
2023-05-15T09:16:18.623Z,12732.00
2023-05-15T09:17:18.579Z,12704.00
2023-05-15T09:18:18.593Z,12676.00
2023-05-15T09:19:18.660Z,12520.00
2023-05-15T09:20:18.582Z,12284.00
2023-05-15T09:21:18.542Z,12100.00
2023-05-15T09:22:18.567Z,11936.00
2023-05-15T09:23:18.537Z,11852.00
2023-05-15T09:24:18.516Z,11864.00
2023-05-15T09:25:18.499Z,11872.00
2023-05-15T09:26:18.484Z,11832.00
2023-05-15T09:27:18.495Z,11756.00
2023-05-15T09:28:18.487Z,11716.00
2023-05-15T09:29:19.055Z,11684.00
2023-05-15T09:30:18.569Z,11668.00
2023-05-15T09:31:18.470Z,11696.00
2023-05-15T09:32:18.473Z,11700.00
2023-05-15T09:33:18.450Z,11760.00
2023-05-15T09:34:18.420Z,11820.00
2023-05-15T09:35:18.400Z,11928.00
2023-05-15T09:36:18.426Z,12084.00
2023-05-15T09:37:18.403Z,12212.00
2023-05-15T09:38:18.365Z,12264.00
2023-05-15T09:39:18.358Z,12428.00
2023-05-15T09:40:18.380Z,12632.00
2023-05-15T09:41:18.380Z,12868.00
2023-05-15T09:42:18.331Z,13140.00
2023-05-15T09:43:18.323Z,13664.00
2023-05-15T09:44:20.642Z,14208.00
2023-05-15T09:45:18.318Z,14784.00
2023-05-15T09:46:18.404Z,15264.00
2023-05-15T09:47:18.468Z,15776.00
2023-05-15T09:48:18.334Z,16128.00
2023-05-15T09:49:18.289Z,16192.00
2023-05-15T09:50:18.325Z,16160.00
2023-05-15T09:51:18.259Z,16032.00
2023-05-15T09:52:18.237Z,15808.00
2023-05-15T09:53:21.327Z,15648.00
2023-05-15T09:54:19.209Z,15488.00
2023-05-15T09:55:18.222Z,15456.00
2023-05-15T09:56:18.208Z,15744.00
2023-05-15T09:57:18.183Z,16064.00
2023-05-15T09:58:18.177Z,16384.00
2023-05-15T09:59:18.169Z,16512.00
2023-05-15T10:00:18.245Z,16576.00
2023-05-15T10:01:18.190Z,16576.00
2023-05-15T10:02:18.149Z,16448.00
2023-05-15T10:03:18.159Z,16320.00
2023-05-15T10:04:18.141Z,16256.00
2023-05-15T10:05:23.574Z,16160.00
2023-05-15T10:06:19.137Z,15968.00
2023-05-15T10:07:18.114Z,15712.00
2023-05-15T10:08:18.075Z,15456.00
2023-05-15T10:09:18.088Z,15104.00
2023-05-15T10:10:18.094Z,14688.00
2023-05-15T10:11:18.047Z,14208.00
2023-05-15T10:12:18.030Z,13824.00
2023-05-15T10:13:18.031Z,13536.00
2023-05-15T10:14:18.033Z,11344.00
2023-05-15T10:15:18.006Z,11304.00
2023-05-15T10:16:18.080Z,12156.00
2023-05-15T10:17:17.990Z,13888.00
2023-05-15T10:18:18.025Z,14016.00
2023-05-15T10:19:18.019Z,14112.00
2023-05-15T10:20:17.983Z,14240.00
2023-05-15T10:21:18.003Z,14304.00
2023-05-15T10:22:17.943Z,14272.00
2023-05-15T10:23:17.955Z,12844.00
2023-05-15T10:24:17.929Z,12228.00
2023-05-15T10:25:17.913Z,12888.00
2023-05-15T10:26:17.900Z,13952.00
2023-05-15T10:27:17.889Z,13856.00
2023-05-15T10:28:17.903Z,13472.00
2023-05-15T10:29:17.891Z,11204.00
2023-05-15T10:30:17.864Z,11092.00
2023-05-15T10:31:17.874Z,11056.00
2023-05-15T10:32:17.911Z,11200.00
2023-05-15T10:33:17.848Z,11288.00
2023-05-15T10:34:17.851Z,11356.00
2023-05-15T10:35:17.818Z,11428.00
2023-05-15T10:36:17.799Z,11516.00
2023-05-15T10:37:17.848Z,11476.00
2023-05-15T10:38:17.777Z,11368.00
2023-05-15T10:41:13.048Z,11788.00
2023-05-15T10:42:00.741Z,12092.00
2023-05-15T10:42:59.713Z,12384.00
2023-05-15T10:43:59.699Z,12684.00
2023-05-15T10:44:59.700Z,13040.00
2023-05-15T10:45:59.684Z,13292.00
2023-05-15T10:46:59.719Z,13560.00
2023-05-15T10:47:59.702Z,13796.00
2023-05-15T10:48:59.658Z,13932.00
2023-05-15T10:49:59.644Z,14032.00
2023-05-15T10:50:59.683Z,14100.00
2023-05-15T10:51:59.638Z,14168.00
2023-05-15T10:52:59.612Z,14296.00
2023-05-15T10:53:59.598Z,14556.00
2023-05-15T10:55:00.307Z,14996.00
2023-05-15T10:55:59.626Z,15392.00
2023-05-15T10:56:59.563Z,15616.00
2023-05-15T10:57:59.562Z,16064.00
2023-05-15T10:58:59.556Z,16448.00
2023-05-15T10:59:59.550Z,16672.00
2023-05-15T11:00:59.645Z,16928.00
2023-05-15T11:01:59.519Z,17248.00
2023-05-15T11:02:59.528Z,17280.00
2023-05-15T11:03:59.520Z,17056.00
2023-05-15T11:04:59.552Z,16512.00
2023-05-15T11:05:59.515Z,16128.00
2023-05-15T11:06:59.462Z,17472.00
2023-05-15T11:07:59.452Z,16064.00
2023-05-15T11:08:59.462Z,15264.00
2023-05-15T11:09:59.468Z,14548.00
2023-05-15T11:10:59.432Z,14456.00
2023-05-15T11:11:59.415Z,14648.00
2023-05-15T11:12:59.436Z,14884.00
2023-05-15T11:14:00.507Z,15012.00
2023-05-15T11:15:01.530Z,15052.00
2023-05-15T11:16:00.514Z,14892.00
2023-05-15T11:17:00.788Z,14544.00
2023-05-15T11:18:00.556Z,14104.00
2023-05-15T11:19:00.506Z,13828.00
2023-05-15T11:20:00.486Z,13844.00
2023-05-15T11:21:00.449Z,13908.00
2023-05-15T11:22:00.440Z,14176.00
2023-05-15T11:23:00.440Z,14584.00
2023-05-15T11:24:00.447Z,14920.00
2023-05-15T11:25:00.425Z,15140.00
2023-05-15T11:26:00.397Z,15424.00
2023-05-15T11:27:00.391Z,15456.00
2023-05-15T11:28:00.406Z,15520.00
2023-05-15T11:29:00.372Z,15552.00
2023-05-15T11:30:00.356Z,15680.00
2023-05-15T11:31:00.389Z,15904.00
2023-05-15T11:32:00.346Z,16032.00
2023-05-15T11:33:00.388Z,15776.00
2023-05-15T11:34:00.322Z,15744.00
2023-05-15T11:35:00.321Z,16064.00
2023-05-15T11:36:00.310Z,15136.00
2023-05-15T11:37:00.291Z,16192.00
2023-05-15T11:38:00.318Z,14464.00
2023-05-15T11:39:00.287Z,14752.00
2023-05-15T11:40:00.253Z,15552.00
2023-05-15T11:41:00.260Z,14784.00
2023-05-15T11:42:01.032Z,12612.00
2023-05-15T11:43:00.255Z,12000.00
2023-05-15T11:44:00.221Z,11668.00
2023-05-15T11:45:00.219Z,11464.00
2023-05-15T11:46:00.279Z,11308.00
2023-05-15T11:47:00.278Z,11224.00
2023-05-15T11:48:00.272Z,11196.00
2023-05-15T11:49:00.262Z,11228.00
2023-05-15T11:50:01.194Z,11268.00
2023-05-15T11:51:00.137Z,11304.00
2023-05-15T11:52:00.162Z,11368.00
2023-05-15T11:53:00.120Z,11440.00
2023-05-15T11:54:00.140Z,11508.00
2023-05-15T11:55:00.158Z,11580.00
2023-05-15T11:56:00.163Z,11652.00
2023-05-15T11:57:00.166Z,11700.00
2023-05-15T11:58:00.085Z,11772.00
2023-05-15T11:59:00.075Z,11812.00
2023-05-15T12:00:00.061Z,11856.00
2023-05-15T12:01:00.065Z,11892.00
2023-05-15T12:02:00.141Z,11920.00
2023-05-15T12:03:00.183Z,11928.00
2023-05-15T12:04:00.336Z,11948.00
2023-05-15T12:05:00.091Z,11964.00
2023-05-15T12:06:00.497Z,11980.00
2023-05-15T12:07:02.898Z,12036.00
2023-05-15T12:07:59.981Z,12124.00
2023-05-15T12:08:59.974Z,12268.00
2023-05-15T12:10:00.973Z,12456.00
2023-05-15T12:10:59.985Z,12664.00
2023-05-15T12:11:59.946Z,12916.00
2023-05-15T12:12:59.926Z,13212.00
2023-05-15T12:13:59.934Z,13492.00
2023-05-15T12:14:59.962Z,13844.00
2023-05-15T12:16:00.027Z,14192.00
2023-05-15T12:16:59.926Z,14552.00
2023-05-15T12:17:59.914Z,14952.00